createdAt,value
2018-07-06T00:02:03.991Z,21.20
2018-07-06T00:04:45.756Z,21.20
2018-07-06T00:07:27.325Z,21.10
2018-07-06T00:10:10.062Z,21.00
2018-07-06T00:12:53.775Z,20.90
2018-07-06T00:15:35.410Z,20.70
2018-07-06T00:18:16.873Z,20.60
2018-07-06T00:20:58.339Z,20.50
2018-07-06T00:23:39.881Z,20.40
2018-07-06T00:26:21.531Z,20.40
2018-07-06T00:29:03.345Z,20.30
2018-07-06T00:31:44.852Z,20.20
2018-07-06T00:34:26.270Z,20.10
2018-07-06T00:37:07.777Z,20.10
2018-07-06T00:39:49.349Z,20.00
2018-07-06T00:42:31.900Z,20.00
2018-07-06T00:45:14.241Z,20.00
2018-07-06T00:47:55.985Z,19.90
2018-07-06T00:50:37.481Z,20.00
2018-07-06T00:53:19.456Z,19.90
2018-07-06T00:56:01.196Z,19.80
2018-07-06T00:58:42.734Z,19.80
2018-07-06T01:01:24.283Z,19.70
2018-07-06T01:04:05.837Z,19.60
2018-07-06T01:06:47.339Z,19.60
2018-07-06T01:09:28.835Z,19.50
2018-07-06T01:12:14.905Z,19.50
2018-07-06T01:14:56.492Z,19.50
2018-07-06T01:17:37.908Z,19.40
2018-07-06T01:20:19.445Z,19.40
2018-07-06T01:23:01.815Z,19.40
2018-07-06T01:25:44.993Z,19.40
2018-07-06T01:28:26.438Z,19.50
2018-07-06T01:31:08.614Z,19.40
2018-07-06T01:33:50.059Z,19.40
2018-07-06T01:36:32.540Z,19.40
2018-07-06T01:39:14.027Z,19.40
2018-07-06T01:41:55.578Z,19.40
2018-07-06T01:44:37.341Z,19.40
2018-07-06T01:47:18.901Z,19.40
2018-07-06T01:50:00.907Z,19.30
2018-07-06T01:52:42.546Z,19.40
2018-07-06T01:55:24.087Z,19.40
2018-07-06T01:58:05.795Z,19.30
2018-07-06T02:00:47.543Z,19.20
2018-07-06T02:06:50.216Z,19.20
2018-07-06T02:09:32.497Z,19.20
2018-07-06T02:12:14.111Z,19.20
2018-07-06T02:14:55.700Z,19.20
2018-07-06T02:17:37.429Z,19.20
2018-07-06T02:20:19.152Z,19.10
2018-07-06T02:23:00.885Z,19.20
2018-07-06T02:25:45.390Z,19.20
2018-07-06T02:28:27.064Z,19.10
2018-07-06T02:31:26.704Z,19.10
2018-07-06T02:34:08.432Z,19.20
2018-07-06T02:36:49.796Z,19.20
2018-07-06T02:39:31.435Z,19.20
2018-07-06T02:42:41.356Z,19.20
2018-07-06T02:45:23.697Z,19.10
2018-07-06T02:48:06.255Z,19.00
2018-07-06T02:50:48.979Z,18.90
2018-07-06T02:53:30.887Z,18.80
2018-07-06T02:56:12.670Z,18.80
2018-07-06T03:01:32.163Z,18.70
2018-07-06T03:04:13.825Z,18.80
2018-07-06T03:06:59.607Z,18.70
2018-07-06T03:13:02.267Z,18.70
2018-07-06T03:15:43.564Z,18.60
2018-07-06T03:21:45.833Z,18.50
2018-07-06T03:24:28.302Z,18.40
2018-07-06T03:27:09.831Z,18.40
2018-07-06T03:29:51.506Z,18.30
2018-07-06T03:32:33.468Z,18.30
2018-07-06T03:35:16.076Z,18.30
2018-07-06T03:37:58.059Z,18.30
2018-07-06T03:40:40.396Z,18.40
2018-07-06T03:43:22.160Z,18.40
2018-07-06T03:46:03.935Z,18.40
2018-07-06T03:48:46.726Z,18.40
2018-07-06T03:51:28.201Z,18.30
2018-07-06T03:54:11.256Z,18.30
2018-07-06T03:56:57.560Z,18.20
2018-07-06T03:59:39.614Z,18.20
2018-07-06T04:02:26.840Z,18.20
2018-07-06T04:05:09.428Z,18.20
2018-07-06T04:07:50.971Z,18.20
2018-07-06T04:10:37.164Z,18.20
2018-07-06T04:13:18.809Z,18.20
2018-07-06T04:16:00.558Z,18.20
2018-07-06T04:18:42.392Z,18.20
2018-07-06T04:21:24.279Z,18.20
2018-07-06T04:24:05.897Z,18.10
2018-07-06T04:26:47.395Z,18.00
2018-07-06T04:29:28.968Z,18.00
2018-07-06T04:32:10.703Z,18.00
2018-07-06T04:34:52.118Z,17.90
2018-07-06T04:37:33.630Z,17.90
2018-07-06T04:40:15.079Z,18.00
2018-07-06T04:42:56.726Z,18.00
2018-07-06T04:45:38.334Z,17.90
2018-07-06T04:48:19.931Z,17.90
2018-07-06T04:51:01.632Z,17.90
2018-07-06T04:53:43.494Z,17.90
2018-07-06T04:56:43.781Z,17.80
2018-07-06T04:59:25.244Z,17.90
2018-07-06T05:02:06.773Z,17.80
2018-07-06T05:04:48.903Z,17.80
2018-07-06T05:07:31.408Z,17.80
2018-07-06T05:10:12.838Z,17.80
2018-07-06T05:12:54.432Z,17.80
2018-07-06T05:15:36.067Z,17.80
2018-07-06T05:21:38.480Z,17.70
2018-07-06T05:27:41.586Z,17.80
2018-07-06T05:30:23.146Z,17.70
2018-07-06T05:33:04.835Z,17.70
2018-07-06T05:35:47.179Z,17.70
2018-07-06T05:38:28.988Z,17.70
2018-07-06T05:41:10.685Z,17.70
2018-07-06T05:43:52.387Z,17.70
2018-07-06T05:46:34.096Z,17.70
2018-07-06T05:49:15.720Z,17.70
2018-07-06T05:51:57.319Z,17.60
2018-07-06T05:54:38.984Z,17.60
2018-07-06T05:57:20.675Z,17.60
2018-07-06T06:00:02.270Z,17.70
2018-07-06T06:02:43.840Z,17.60
2018-07-06T06:05:25.489Z,17.60
2018-07-06T06:07:55.277Z,17.70
2018-07-06T06:10:27.888Z,17.70
2018-07-06T06:13:00.476Z,17.70
2018-07-06T06:15:32.980Z,17.70
2018-07-06T06:18:05.536Z,17.70
2018-07-06T06:20:38.012Z,17.70
2018-07-06T06:23:10.573Z,17.60
2018-07-06T06:25:43.100Z,17.70
2018-07-06T06:28:15.608Z,17.60
2018-07-06T06:30:48.296Z,17.60
2018-07-06T06:35:52.385Z,17.60
2018-07-06T06:38:25.116Z,17.60
2018-07-06T06:40:57.884Z,17.60
2018-07-06T06:43:30.536Z,17.60
2018-07-06T06:46:03.164Z,17.50
2018-07-06T06:48:35.791Z,17.50
2018-07-06T06:51:08.331Z,17.50
2018-07-06T06:53:41.776Z,17.50
2018-07-06T06:56:14.310Z,17.50
2018-07-06T06:58:47.332Z,17.50
2018-07-06T07:01:19.990Z,17.50
2018-07-06T07:03:52.860Z,17.60
2018-07-06T07:06:25.743Z,17.60
2018-07-06T07:08:58.700Z,17.60
2018-07-06T07:11:31.782Z,17.60
2018-07-06T07:14:05.450Z,17.60
2018-07-06T07:16:37.941Z,17.60
2018-07-06T07:19:10.450Z,17.60
2018-07-06T07:21:43.085Z,17.60
2018-07-06T07:24:15.810Z,17.60
2018-07-06T07:26:48.290Z,17.60
2018-07-06T07:32:42.698Z,17.60
2018-07-06T07:35:15.379Z,17.60
2018-07-06T07:41:19.687Z,17.50
2018-07-06T07:43:52.802Z,17.50
2018-07-06T07:46:26.019Z,17.50
2018-07-06T07:48:58.788Z,17.50
2018-07-06T07:52:10.787Z,17.50
2018-07-06T07:54:49.545Z,17.50
2018-07-06T07:57:22.689Z,17.40
2018-07-06T07:59:55.822Z,17.40
2018-07-06T08:02:28.731Z,17.40
2018-07-06T08:08:22.287Z,17.40
2018-07-06T08:10:54.903Z,17.40
2018-07-06T08:13:27.483Z,17.40
2018-07-06T08:16:00.137Z,17.30
2018-07-06T08:18:32.818Z,17.30
2018-07-06T08:21:05.488Z,17.20
2018-07-06T08:23:39.307Z,17.20
2018-07-06T08:26:11.830Z,17.20
2018-07-06T08:28:44.367Z,17.20
2018-07-06T08:31:16.936Z,17.20
2018-07-06T08:36:00.992Z,17.20
2018-07-06T08:38:33.572Z,17.20
2018-07-06T08:41:06.435Z,17.20
2018-07-06T08:43:38.836Z,17.20
2018-07-06T08:46:11.439Z,17.20
2018-07-06T08:48:44.140Z,17.20
2018-07-06T08:51:16.695Z,17.20
2018-07-06T08:53:49.345Z,17.20
2018-07-06T08:56:21.895Z,17.30
2018-07-06T08:58:54.782Z,17.20
2018-07-06T09:01:27.552Z,17.20
2018-07-06T09:04:00.170Z,17.30
2018-07-06T09:06:32.736Z,17.30
2018-07-06T09:09:05.433Z,17.30
2018-07-06T09:11:38.086Z,17.30
2018-07-06T09:14:10.602Z,17.40
2018-07-06T09:16:43.316Z,17.40
2018-07-06T09:19:15.947Z,17.40
2018-07-06T09:21:48.459Z,17.30
2018-07-06T09:24:21.012Z,17.30
2018-07-06T09:26:53.766Z,17.20
2018-07-06T09:29:26.414Z,17.20
2018-07-06T09:31:59.385Z,17.20
2018-07-06T09:34:31.987Z,17.20
2018-07-06T09:37:04.667Z,17.20
2018-07-06T09:39:37.317Z,17.20
2018-07-06T09:42:09.892Z,17.20
2018-07-06T09:44:42.504Z,17.20
2018-07-06T09:47:15.094Z,17.20
2018-07-06T09:49:47.719Z,17.20
2018-07-06T09:52:20.414Z,17.20
2018-07-06T09:54:53.751Z,17.10
2018-07-06T09:57:26.339Z,17.10
2018-07-06T09:59:58.948Z,17.00
2018-07-06T10:02:31.581Z,17.00
2018-07-06T10:05:04.190Z,17.10
2018-07-06T10:07:36.691Z,17.10
2018-07-06T10:10:09.453Z,17.10
2018-07-06T10:12:41.942Z,17.20
2018-07-06T10:15:14.500Z,17.20
2018-07-06T10:17:47.957Z,17.20
2018-07-06T10:20:20.517Z,17.30
2018-07-06T10:22:53.230Z,17.30
2018-07-06T10:25:25.848Z,17.40
2018-07-06T10:28:07.975Z,17.40
2018-07-06T10:31:22.198Z,17.40
2018-07-06T10:33:54.841Z,17.60
2018-07-06T10:36:27.417Z,17.60
2018-07-06T10:39:00.095Z,17.60
2018-07-06T10:41:32.678Z,17.60
2018-07-06T10:44:05.254Z,17.60
2018-07-06T10:49:58.063Z,17.60
2018-07-06T10:52:30.301Z,17.60
2018-07-06T10:55:02.690Z,17.70
2018-07-06T10:57:34.941Z,17.70
2018-07-06T11:00:07.441Z,17.70
2018-07-06T11:02:39.794Z,17.70
2018-07-06T11:05:12.049Z,17.70
2018-07-06T11:07:44.491Z,17.70
2018-07-06T11:10:17.001Z,17.80
2018-07-06T11:12:49.323Z,17.80
2018-07-06T11:15:21.534Z,17.80
2018-07-06T11:17:53.909Z,17.80
2018-07-06T11:20:26.247Z,17.80
2018-07-06T11:22:58.527Z,17.80
2018-07-06T11:25:30.831Z,17.80
2018-07-06T11:28:03.235Z,17.80
2018-07-06T11:30:35.580Z,17.80
2018-07-06T11:33:07.898Z,17.70
2018-07-06T11:39:02.414Z,17.40
2018-07-06T11:44:56.074Z,17.30
2018-07-06T11:47:50.915Z,17.40
2018-07-06T11:50:27.956Z,17.40
2018-07-06T11:53:00.870Z,17.50
2018-07-06T11:59:33.421Z,17.50
2018-07-06T12:02:05.936Z,17.50
2018-07-06T12:04:38.369Z,17.40
2018-07-06T12:07:11.066Z,17.30
2018-07-06T12:09:43.662Z,17.20
2018-07-06T12:12:16.176Z,17.20
2018-07-06T12:14:48.878Z,17.10
2018-07-06T12:17:21.371Z,17.00
2018-07-06T12:19:54.504Z,17.00
2018-07-06T12:25:57.732Z,17.10
2018-07-06T12:28:30.015Z,17.00
2018-07-06T12:31:02.575Z,17.00
2018-07-06T12:33:34.926Z,17.00
2018-07-06T12:36:07.316Z,17.10
2018-07-06T12:38:42.025Z,17.10
2018-07-06T12:41:14.253Z,17.10
2018-07-06T12:43:48.109Z,17.10
2018-07-06T12:46:20.105Z,17.10
2018-07-06T12:48:52.989Z,17.10
2018-07-06T12:55:18.615Z,17.30
2018-07-06T12:57:51.059Z,17.40
2018-07-06T13:00:23.367Z,17.50
2018-07-06T13:02:55.820Z,17.60
2018-07-06T13:05:28.429Z,17.60
2018-07-06T13:08:00.787Z,17.80
2018-07-06T13:13:53.654Z,18.00
2018-07-06T13:19:46.878Z,18.20
2018-07-06T13:22:19.121Z,18.30
2018-07-06T13:24:51.445Z,18.40
2018-07-06T13:27:23.794Z,18.30
2018-07-06T13:29:56.600Z,18.50
2018-07-06T13:32:29.964Z,18.70
2018-07-06T13:35:02.308Z,18.90
2018-07-06T13:37:34.554Z,19.40
2018-07-06T13:40:06.778Z,19.70
2018-07-06T13:42:39.041Z,20.20
2018-07-06T13:45:11.313Z,20.50
2018-07-06T13:47:43.852Z,20.30
2018-07-06T13:50:16.144Z,20.00
2018-07-06T13:52:48.390Z,20.00
2018-07-06T13:55:20.512Z,19.80
2018-07-06T13:57:52.730Z,19.90
2018-07-06T14:00:24.994Z,20.20
2018-07-06T14:05:28.546Z,20.90
2018-07-06T14:08:00.996Z,20.80
2018-07-06T14:10:33.324Z,20.40
2018-07-06T14:13:05.929Z,20.30
2018-07-06T14:15:52.542Z,20.10
2018-07-06T14:18:25.591Z,19.90
2018-07-06T14:20:57.966Z,20.10
2018-07-06T14:23:30.850Z,20.50
2018-07-06T14:26:03.413Z,20.80
2018-07-06T14:28:35.992Z,20.80
2018-07-06T14:31:10.549Z,20.50
2018-07-06T14:33:43.073Z,20.30
2018-07-06T14:36:15.658Z,20.10
2018-07-06T14:38:51.162Z,20.10
2018-07-06T14:41:26.331Z,20.30
2018-07-06T14:43:58.774Z,20.40
2018-07-06T14:46:46.689Z,20.30
2018-07-06T14:49:27.863Z,20.10
2018-07-06T14:52:01.230Z,20.30
2018-07-06T14:54:35.541Z,20.60
2018-07-06T14:57:08.335Z,20.90
2018-07-06T14:59:41.691Z,21.10
2018-07-06T15:02:14.240Z,21.10
2018-07-06T15:04:46.706Z,21.00
2018-07-06T15:07:19.445Z,20.80
2018-07-06T15:09:52.612Z,20.70
2018-07-06T15:12:24.927Z,20.60
2018-07-06T15:14:58.419Z,20.40
2018-07-06T15:18:18.955Z,20.10
2018-07-06T15:20:52.109Z,20.20
2018-07-06T15:23:33.103Z,20.20
2018-07-06T15:26:06.120Z,20.30
2018-07-06T15:28:38.943Z,20.40
2018-07-06T15:31:11.832Z,20.40
2018-07-06T15:37:05.798Z,20.20
2018-07-06T15:39:38.158Z,20.20
2018-07-06T15:42:10.800Z,20.20
2018-07-06T15:44:43.363Z,20.20
2018-07-06T15:47:16.023Z,20.10
2018-07-06T15:49:49.124Z,19.90
2018-07-06T15:52:24.319Z,20.00
2018-07-06T15:54:56.786Z,19.90
2018-07-06T15:57:29.700Z,20.00
2018-07-06T16:00:06.639Z,20.20
2018-07-06T16:02:39.078Z,20.50
2018-07-06T16:05:11.597Z,20.80
2018-07-06T16:07:44.228Z,20.80
2018-07-06T16:10:16.906Z,20.70
2018-07-06T16:12:49.776Z,20.50
2018-07-06T16:15:25.507Z,20.70
2018-07-06T16:17:59.292Z,20.90
2018-07-06T16:20:35.094Z,21.00
2018-07-06T16:26:29.314Z,20.90
2018-07-06T16:29:02.244Z,20.90
2018-07-06T16:31:34.990Z,20.70
2018-07-06T16:36:41.723Z,21.30
2018-07-06T16:39:16.113Z,21.10
2018-07-06T16:41:49.122Z,21.10
2018-07-06T16:44:23.252Z,21.30
2018-07-06T16:46:59.457Z,21.70
2018-07-06T16:52:06.553Z,22.00
2018-07-06T16:54:39.839Z,22.10
2018-07-06T16:57:13.020Z,22.10
2018-07-06T16:59:47.571Z,22.10
2018-07-06T17:02:20.897Z,22.40
2018-07-06T17:04:54.718Z,23.10
2018-07-06T17:07:29.035Z,22.70
2018-07-06T17:10:01.836Z,22.40
2018-07-06T17:12:35.757Z,23.10
2018-07-06T17:15:09.297Z,24.50
2018-07-06T17:17:43.856Z,25.00
2018-07-06T17:20:16.899Z,23.80
2018-07-06T17:22:51.364Z,23.60
2018-07-06T17:25:24.614Z,23.60
2018-07-06T17:30:30.267Z,23.20
2018-07-06T17:33:03.020Z,23.60
2018-07-06T17:35:35.642Z,24.90
2018-07-06T17:38:09.698Z,25.30
2018-07-06T17:40:42.698Z,24.40
2018-07-06T17:43:15.587Z,23.90
2018-07-06T17:51:40.853Z,23.30
2018-07-06T17:54:13.177Z,23.70
2018-07-06T17:56:48.051Z,24.40
2018-07-06T17:59:21.687Z,25.00
2018-07-06T18:01:59.140Z,24.30
2018-07-06T18:04:32.485Z,24.10
2018-07-06T18:07:06.187Z,23.80
2018-07-06T18:09:39.460Z,24.70
2018-07-06T18:12:13.491Z,24.50
2018-07-06T18:15:04.703Z,24.00
2018-07-06T18:17:38.133Z,23.60
2018-07-06T18:20:13.283Z,23.80
2018-07-06T18:22:47.032Z,24.30
2018-07-06T18:25:19.509Z,23.90
2018-07-06T18:27:52.424Z,23.80
2018-07-06T18:30:26.860Z,23.00
2018-07-06T18:32:59.869Z,22.10
2018-07-06T18:35:37.593Z,21.00
2018-07-06T18:38:10.163Z,20.60
2018-07-06T18:40:42.551Z,20.50
2018-07-06T18:43:15.910Z,20.40
2018-07-06T18:45:48.453Z,20.10
2018-07-06T18:48:20.918Z,19.80
2018-07-06T18:50:53.418Z,19.70
2018-07-06T18:53:47.950Z,19.70
2018-07-06T18:56:22.267Z,19.70
2018-07-06T18:59:00.859Z,20.00
2018-07-06T19:01:39.010Z,20.40
2018-07-06T19:33:16.310Z,20.20
2018-07-06T19:35:48.746Z,20.30
2018-07-06T19:40:52.109Z,21.60
2018-07-06T19:43:24.476Z,21.60
2018-07-06T19:45:57.333Z,21.70
2018-07-06T19:48:29.544Z,22.00
2018-07-06T19:51:08.370Z,22.20
2018-07-06T19:53:40.725Z,22.20
2018-07-06T19:58:44.027Z,21.30
2018-07-06T20:01:20.939Z,20.50
2018-07-06T20:03:53.246Z,19.30
2018-07-06T20:06:28.029Z,18.70
2018-07-06T20:09:00.810Z,18.60
2018-07-06T20:11:34.449Z,18.40
2018-07-06T20:14:06.698Z,18.30
2018-07-06T20:19:48.475Z,18.30
2018-07-06T20:22:24.681Z,18.10
2018-07-06T20:24:58.540Z,18.00
2018-07-06T20:27:31.282Z,18.00
2018-07-06T20:30:04.795Z,18.10
2018-07-06T20:32:41.479Z,18.20
2018-07-06T20:38:35.069Z,18.10
2018-07-06T20:41:09.068Z,18.10
2018-07-06T20:43:42.033Z,18.20
2018-07-06T20:46:18.737Z,18.30
2018-07-06T20:48:53.025Z,18.30
2018-07-06T20:51:25.715Z,18.40
2018-07-06T20:53:58.921Z,18.40
2018-07-06T20:56:31.679Z,18.40
2018-07-06T20:59:44.328Z,18.50
2018-07-06T21:02:19.298Z,18.60
2018-07-06T21:04:59.871Z,18.70
2018-07-06T21:07:37.697Z,18.80
2018-07-06T21:10:16.676Z,18.90
2018-07-06T21:12:54.063Z,19.00
2018-07-06T21:15:27.235Z,18.90
2018-07-06T21:18:14.889Z,18.90
2018-07-06T21:20:52.956Z,18.80
2018-07-06T21:23:26.246Z,18.80
2018-07-06T21:25:58.998Z,18.90
2018-07-06T21:31:53.018Z,18.90
2018-07-06T21:34:25.441Z,19.00
2018-07-06T21:36:57.932Z,19.00
2018-07-06T21:39:30.328Z,19.00
2018-07-06T21:42:03.049Z,19.00
2018-07-06T21:44:35.409Z,19.00
2018-07-06T21:49:39.115Z,19.00
2018-07-06T21:52:11.613Z,19.10
2018-07-06T21:57:15.170Z,19.20
2018-07-06T21:59:47.695Z,19.30
2018-07-06T22:02:20.140Z,19.20
2018-07-06T22:04:52.702Z,19.20
2018-07-06T22:07:25.091Z,19.20
2018-07-06T22:09:57.483Z,19.20
2018-07-06T22:12:30.059Z,19.20
2018-07-06T22:15:06.341Z,19.20
2018-07-06T22:17:38.991Z,19.20
2018-07-06T22:20:11.457Z,19.30
2018-07-06T22:22:43.882Z,19.30
2018-07-06T22:25:19.095Z,19.30
2018-07-06T22:27:51.487Z,19.30
2018-07-06T22:30:24.193Z,19.20
2018-07-06T22:32:56.559Z,19.20
2018-07-06T22:35:28.939Z,19.00
2018-07-06T22:38:01.329Z,19.00
2018-07-06T22:40:33.749Z,18.90
2018-07-06T22:43:05.992Z,18.90
2018-07-06T22:45:38.514Z,19.00
2018-07-06T22:48:11.222Z,19.00
2018-07-06T22:50:43.823Z,19.00
2018-07-06T22:53:16.085Z,19.00
2018-07-06T22:55:48.569Z,19.00
2018-07-06T22:58:21.039Z,19.00
2018-07-06T23:00:54.181Z,19.00
2018-07-06T23:03:26.623Z,19.00
2018-07-06T23:05:59.358Z,19.00
2018-07-06T23:08:31.657Z,18.90
2018-07-06T23:11:04.224Z,18.90
2018-07-06T23:13:36.970Z,18.90
2018-07-06T23:16:09.796Z,18.80
2018-07-06T23:18:42.269Z,18.90
2018-07-06T23:21:14.670Z,18.90
2018-07-06T23:23:47.084Z,18.90
2018-07-06T23:26:19.554Z,18.90
2018-07-06T23:28:52.207Z,18.90
2018-07-06T23:31:24.549Z,18.90
2018-07-06T23:33:56.935Z,18.80
2018-07-06T23:36:29.214Z,18.80
2018-07-06T23:39:01.609Z,18.70
2018-07-06T23:41:34.025Z,18.70
2018-07-06T23:44:06.462Z,18.70
2018-07-06T23:46:38.669Z,18.70
2018-07-06T23:49:11.163Z,18.70
2018-07-06T23:51:43.994Z,18.60
2018-07-06T23:54:16.800Z,18.60
2018-07-06T23:56:49.303Z,18.50
2018-07-06T23:59:22.112Z,18.50
